Time;durP1;ratioP1;P1;durP2;ratioP2;P2;SDS_P1;SDS_P2;PMS_P1;PMS_P2;Temp;Humidity;BMP_temperature;BMP_pressure;BME280_temperature;BME280_humidity;BME280_pressure;Samples;Min_cycle;Max_cycle;Signal;HPM_P1;HPM_P2
2022/11/01 00:02:11;;;;;;;20.05;7.13;;;18.60;99.90;;;;;;5043561;28;20049;-73
2022/11/01 00:04:38;;;;;;;10.85;6.63;;;18.60;99.90;;;;;;5045349;28;20075;-73
2022/11/01 00:07:06;;;;;;;13.73;6.43;;;18.60;99.90;;;;;;5055193;28;20041;-73
2022/11/01 00:09:33;;;;;;;9.32;6.47;;;18.60;99.90;;;;;;5065534;28;20139;-73
2022/11/01 00:12:01;;;;;;;13.02;7.43;;;18.60;99.90;;;;;;5066812;28;20055;-75
2022/11/01 00:14:28;;;;;;;12.02;5.97;;;18.60;99.90;;;;;;5049270;28;20059;-73
2022/11/01 00:16:57;;;;;;;12.32;8.00;;;18.50;99.90;;;;;;5067131;28;20368;-74
2022/11/01 00:19:25;;;;;;;13.90;7.50;;;18.60;99.90;;;;;;5065004;28;20131;-73
2022/11/01 00:21:52;;;;;;;13.27;6.47;;;18.50;99.90;;;;;;5048786;28;20067;-73
2022/11/01 00:24:20;;;;;;;14.40;6.10;;;18.50;99.90;;;;;;5067153;28;20073;-74
2022/11/01 00:26:47;;;;;;;10.88;6.70;;;18.50;99.90;;;;;;5049467;28;20048;-74
2022/11/01 00:29:19;;;;;;;11.50;7.47;;;18.50;99.90;;;;;;5050228;28;20553;-74
2022/11/01 00:31:47;;;;;;;9.27;5.78;;;18.50;99.90;;;;;;5065672;28;20708;-75
2022/11/01 00:34:15;;;;;;;11.38;6.45;;;18.50;99.90;;;;;;5049429;28;20114;-73
2022/11/01 00:36:43;;;;;;;9.15;5.55;;;18.50;99.90;;;;;;5065336;28;20052;-73
2022/11/01 00:39:14;;;;;;;14.30;6.70;;;18.50;99.90;;;;;;5049105;28;20036;-72
2022/11/01 00:41:41;;;;;;;9.75;6.13;;;18.50;99.90;;;;;;5048986;28;20044;-73
2022/11/01 00:44:09;;;;;;;10.55;5.97;;;18.50;99.90;;;;;;5065412;28;20056;-75
2022/11/01 00:46:36;;;;;;;11.77;5.88;;;18.50;99.90;;;;;;5048994;28;20056;-74
2022/11/01 00:49:04;;;;;;;17.55;7.47;;;18.50;99.90;;;;;;5064922;28;20050;-73
2022/11/01 00:51:31;;;;;;;11.27;6.20;;;18.50;99.90;;;;;;5061890;28;20123;-73
2022/11/01 00:53:59;;;;;;;12.75;6.18;;;18.50;99.90;;;;;;5044810;28;20068;-74
2022/11/01 00:56:27;;;;;;;8.43;5.95;;;18.50;99.90;;;;;;5048329;28;20037;-73
2022/11/01 00:58:54;;;;;;;9.38;5.38;;;18.50;99.90;;;;;;5046988;28;20049;-74
2022/11/01 01:01:22;;;;;;;17.13;6.07;;;18.50;99.90;;;;;;5045590;28;20110;-75
2022/11/01 01:03:49;;;;;;;12.27;6.22;;;18.50;99.90;;;;;;5045363;28;20449;-73
2022/11/01 01:06:17;;;;;;;12.73;5.95;;;18.40;99.90;;;;;;5048287;28;20040;-75
2022/11/01 01:08:44;;;;;;;6.65;5.50;;;18.40;99.90;;;;;;5060233;28;20047;-74
2022/11/01 01:11:12;;;;;;;10.18;6.20;;;18.40;99.90;;;;;;5032627;28;20546;-74
2022/11/01 01:13:39;;;;;;;10.95;6.22;;;18.40;99.90;;;;;;5046449;28;20119;-73
2022/11/01 01:16:11;;;;;;;8.35;5.32;;;18.40;99.90;;;;;;5028704;28;20060;-74
2022/11/01 01:18:39;;;;;;;8.35;5.55;;;18.40;99.90;;;;;;5041469;28;20052;-74
2022/11/01 01:21:06;;;;;;;16.17;6.13;;;18.40;99.90;;;;;;5048473;28;20048;-75
2022/11/01 01:23:35;;;;;;;13.65;5.13;;;18.40;99.90;;;;;;5065119;28;20079;-74
2022/11/01 01:26:07;;;;;;;9.70;5.93;;;18.40;99.90;;;;;;5032097;28;20390;-74
2022/11/01 01:28:36;;;;;;;6.55;4.88;;;18.40;99.90;;;;;;5027163;28;20578;-74
2022/11/01 01:31:07;;;;;;;12.63;5.07;;;18.40;99.90;;;;;;5042605;28;20139;-73
2022/11/01 01:33:34;;;;;;;11.68;6.32;;;18.30;99.90;;;;;;5030261;28;20043;-75
2022/11/01 01:36:04;;;;;;;8.93;5.32;;;18.30;99.90;;;;;;5063247;28;20080;-73
2022/11/01 01:38:32;;;;;;;9.55;5.90;;;18.30;99.90;;;;;;5067052;28;20044;-75
2022/11/01 01:41:54;;;;;;;9.52;5.50;;;18.30;99.90;;;;;;5033186;28;20418;-73
2022/11/01 01:43:47;;;;;;;9.43;5.07;;;18.30;99.90;;;;;;5065438;28;20087;-73
2022/11/01 01:46:14;;;;;;;10.90;6.45;;;18.30;99.90;;;;;;5032016;28;20045;-75
2022/11/01 01:48:45;;;;;;;15.55;5.22;;;18.30;99.90;;;;;;5048865;28;20060;-73
2022/11/01 01:51:17;;;;;;;11.95;5.65;;;18.30;99.90;;;;;;5048557;28;20558;-74
2022/11/01 01:53:48;;;;;;;8.07;5.45;;;18.30;99.90;;;;;;5065318;28;20036;-74
2022/11/01 01:56:21;;;;;;;8.55;5.00;;;18.30;99.90;;;;;;5065183;28;20201;-75
2022/11/01 01:58:54;;;;;;;9.75;5.40;;;18.30;99.90;;;;;;5065420;28;20088;-74
2022/11/01 02:01:22;;;;;;;7.18;5.32;;;18.30;99.90;;;;;;5048984;28;20128;-74
2022/11/01 02:03:49;;;;;;;10.02;6.00;;;18.30;99.90;;;;;;5065171;28;20095;-74
2022/11/01 02:06:20;;;;;;;10.88;6.45;;;18.30;99.90;;;;;;5048942;28;20078;-73
2022/11/01 02:08:52;;;;;;;13.95;6.43;;;18.30;99.90;;;;;;5068448;28;20098;-74
2022/11/01 02:11:20;;;;;;;11.45;6.35;;;18.30;99.90;;;;;;5068384;28;20079;-73
2022/11/01 02:13:47;;;;;;;12.15;6.13;;;18.30;99.90;;;;;;5068058;28;20554;-74
2022/11/01 02:16:34;;;;;;;11.63;6.18;;;18.30;99.90;;;;;;5068299;28;20067;-73
2022/11/01 02:19:16;;;;;;;9.05;5.18;;;18.30;99.90;;;;;;5051986;28;20052;-74
2022/11/01 02:22:18;;;;;;;9.75;6.50;;;18.30;99.90;;;;;;5068964;28;20045;-74
2022/11/01 02:25:13;;;;;;;9.43;5.03;;;18.20;99.90;;;;;;5067819;28;20048;-74
2022/11/01 02:27:56;;;;;;;10.63;7.22;;;18.20;99.90;;;;;;5068685;28;20162;-73
2022/11/01 02:30:25;;;;;;;13.95;5.05;;;18.20;99.90;;;;;;5067477;28;20053;-74
2022/11/01 02:33:04;;;;;;;12.82;5.55;;;18.20;99.90;;;;;;5068587;28;20048;-73
2022/11/01 02:35:53;;;;;;;8.55;5.43;;;18.20;99.90;;;;;;5067408;28;20502;-74
2022/11/01 02:38:26;;;;;;;13.23;6.50;;;18.20;99.90;;;;;;5067062;28;20095;-73
2022/11/01 02:41:16;;;;;;;9.73;5.78;;;18.20;99.90;;;;;;5070354;28;20029;-74
2022/11/01 02:44:02;;;;;;;13.60;6.32;;;18.20;99.90;;;;;;5067357;28;20123;-74
2022/11/01 02:49:22;;;;;;;11.48;6.22;;;18.20;99.90;;;;;;5067938;28;20051;-74
2022/11/01 02:51:51;;;;;;;9.73;6.05;;;18.20;99.90;;;;;;5067319;28;20100;-74
2022/11/01 02:54:29;;;;;;;10.25;5.85;;;18.10;99.90;;;;;;5067635;28;20071;-74
2022/11/01 02:57:04;;;;;;;8.18;5.60;;;18.10;99.90;;;;;;5051120;28;20426;-73
2022/11/01 02:59:42;;;;;;;10.27;5.90;;;18.10;99.90;;;;;;5069101;28;20060;-73
2022/11/01 03:02:21;;;;;;;9.40;6.60;;;18.10;99.90;;;;;;5034114;28;20049;-74
2022/11/01 03:04:48;;;;;;;12.07;7.10;;;18.10;99.90;;;;;;5068625;28;20048;-73
2022/11/01 03:07:16;;;;;;;12.32;6.90;;;18.00;99.90;;;;;;5067294;28;20127;-72
2022/11/01 03:09:44;;;;;;;8.23;4.68;;;18.10;99.90;;;;;;5050803;28;20056;-74
2022/11/01 03:12:27;;;;;;;10.07;5.95;;;18.10;99.90;;;;;;5068641;28;20146;-74
2022/11/01 03:15:19;;;;;;;12.32;6.47;;;18.00;99.90;;;;;;5050585;28;20059;-74
2022/11/01 03:17:53;;;;;;;13.18;7.25;;;18.00;99.90;;;;;;5050162;28;20044;-73
2022/11/01 03:20:49;;;;;;;8.85;5.35;;;18.00;99.90;;;;;;5050753;28;20052;-73
2022/11/01 03:23:29;;;;;;;20.67;6.03;;;18.00;99.90;;;;;;5033872;28;20052;-74
2022/11/01 03:25:59;;;;;;;11.07;5.43;;;18.00;99.90;;;;;;5067018;28;20064;-75
2022/11/01 03:28:32;;;;;;;11.65;6.40;;;18.00;99.90;;;;;;5068128;28;20041;-73
2022/11/01 03:31:10;;;;;;;11.07;5.22;;;18.00;99.90;;;;;;5050510;28;20054;-73
2022/11/01 03:33:42;;;;;;;9.90;5.57;;;17.90;99.90;;;;;;5066772;28;20513;-74
2022/11/01 03:36:14;;;;;;;13.13;6.78;;;18.00;99.90;;;;;;5066507;28;20052;-73
2022/11/01 03:38:47;;;;;;;10.57;6.35;;;18.00;99.90;;;;;;5066686;28;20518;-73
2022/11/01 03:41:17;;;;;;;8.13;5.68;;;17.90;99.90;;;;;;5047901;28;20112;-74
2022/11/01 03:43:46;;;;;;;12.40;5.90;;;17.90;99.90;;;;;;5066638;28;20045;-73
2022/11/01 03:46:15;;;;;;;13.20;6.15;;;17.90;99.90;;;;;;5049872;28;20129;-73
2022/11/01 03:48:42;;;;;;;13.00;6.05;;;17.90;99.90;;;;;;5066506;28;20152;-73
2022/11/01 03:51:10;;;;;;;8.95;4.97;;;17.90;99.90;;;;;;5049994;28;20071;-73
2022/11/01 03:53:37;;;;;;;12.73;6.07;;;17.90;99.90;;;;;;5066699;28;20502;-74
2022/11/01 03:56:05;;;;;;;9.55;6.55;;;17.90;99.90;;;;;;5066509;28;20155;-75
2022/11/01 03:58:45;;;;;;;9.43;7.15;;;18.00;99.90;;;;;;5049966;28;20147;-74
2022/11/01 04:01:14;;;;;;;11.05;6.22;;;17.90;99.90;;;;;;5060735;28;20052;-73
2022/11/01 04:03:43;;;;;;;15.27;8.10;;;17.90;99.90;;;;;;5065405;28;20165;-74
2022/11/01 04:06:11;;;;;;;13.48;6.50;;;17.90;99.90;;;;;;5066174;28;20053;-73
2022/11/01 04:08:39;;;;;;;11.75;6.70;;;18.00;99.90;;;;;;5049473;28;20117;-73
2022/11/01 04:11:07;;;;;;;12.32;6.60;;;17.90;99.90;;;;;;5049405;28;20063;-73
2022/11/01 04:13:34;;;;;;;15.70;7.68;;;18.00;99.90;;;;;;5066020;28;20055;-73
2022/11/01 04:21:33;;;;;;;13.67;7.33;;;17.90;99.90;;;;;;5067278;28;20047;-73
2022/11/01 04:24:01;;;;;;;13.70;7.93;;;17.90;99.90;;;;;;5065450;28;20056;-74
2022/11/01 04:26:28;;;;;;;9.02;5.80;;;17.90;99.90;;;;;;5049461;28;20052;-73
2022/11/01 04:28:56;;;;;;;9.88;6.60;;;17.90;99.90;;;;;;5063903;28;20069;-73
2022/11/01 04:31:28;;;;;;;16.65;7.75;;;17.90;99.90;;;;;;5065405;28;20048;-74
2022/11/01 04:33:56;;;;;;;11.38;7.65;;;17.90;99.90;;;;;;5048523;28;20225;-74
2022/11/01 04:36:25;;;;;;;17.15;8.68;;;17.80;99.90;;;;;;5066757;28;20059;-74
2022/11/01 04:38:54;;;;;;;13.98;7.35;;;17.80;99.90;;;;;;5065635;28;20060;-72
2022/11/01 04:41:24;;;;;;;13.45;7.55;;;17.80;99.90;;;;;;5048701;28;20118;-74
2022/11/01 04:43:54;;;;;;;11.85;8.48;;;17.80;99.90;;;;;;5065058;28;20056;-73
2022/11/01 04:46:22;;;;;;;12.68;7.30;;;17.90;99.90;;;;;;5065341;28;20046;-73
2022/11/01 04:48:49;;;;;;;22.35;8.45;;;17.90;99.90;;;;;;5065169;28;20067;-73
2022/11/01 04:51:17;;;;;;;14.77;8.25;;;17.90;99.90;;;;;;5049115;28;20054;-73
2022/11/01 04:53:44;;;;;;;13.55;8.02;;;17.90;99.90;;;;;;5065592;28;20137;-73
2022/11/01 04:56:12;;;;;;;16.90;8.35;;;17.90;99.90;;;;;;5064992;28;20147;-75
2022/11/01 04:58:40;;;;;;;13.35;8.45;;;17.90;99.90;;;;;;5065452;28;20053;-74
2022/11/01 05:01:08;;;;;;;16.10;9.75;;;17.90;99.90;;;;;;5064464;28;20044;-73
2022/11/01 05:03:36;;;;;;;14.45;8.48;;;17.90;99.90;;;;;;5065998;28;20032;-73
2022/11/01 05:06:04;;;;;;;18.23;9.95;;;17.90;99.90;;;;;;5065724;28;20481;-74
2022/11/01 05:08:32;;;;;;;13.50;7.57;;;17.90;99.90;;;;;;5048725;28;20254;-72
2022/11/01 05:10:59;;;;;;;13.13;8.63;;;17.90;99.90;;;;;;5048966;28;20071;-74
2022/11/01 05:13:26;;;;;;;15.88;9.85;;;17.90;99.90;;;;;;5064114;28;20044;-73
2022/11/01 05:15:54;;;;;;;17.23;9.57;;;18.00;99.90;;;;;;5064951;28;20041;-73
2022/11/01 05:18:42;;;;;;;15.25;9.23;;;18.00;99.90;;;;;;5050912;28;20147;-73
2022/11/01 05:21:10;;;;;;;17.98;10.13;;;18.00;99.90;;;;;;5064671;28;20044;-73
2022/11/01 05:23:37;;;;;;;20.23;12.05;;;18.00;99.90;;;;;;5064627;28;20511;-74
2022/11/01 05:26:05;;;;;;;21.55;12.25;;;18.10;99.90;;;;;;5062614;28;20084;-74
2022/11/01 05:28:33;;;;;;;25.67;13.25;;;18.10;99.90;;;;;;5048090;28;20044;-74
2022/11/01 05:31:00;;;;;;;19.83;12.43;;;18.20;99.90;;;;;;5048522;28;20055;-73
2022/11/01 05:33:28;;;;;;;19.45;12.93;;;18.20;99.90;;;;;;5066492;28;20555;-73
2022/11/01 05:35:55;;;;;;;20.35;13.45;;;18.20;99.90;;;;;;5047469;28;20058;-73
2022/11/01 05:38:23;;;;;;;19.65;12.10;;;18.20;99.90;;;;;;5047427;28;20084;-73
2022/11/01 05:40:50;;;;;;;23.67;14.40;;;18.30;99.90;;;;;;5067337;28;20059;-73
2022/11/01 05:43:18;;;;;;;19.65;12.70;;;18.30;99.90;;;;;;5068473;28;20158;-73
2022/11/01 05:45:45;;;;;;;22.13;15.00;;;18.30;99.90;;;;;;5065319;28;20042;-78
2022/11/01 05:48:13;;;;;;;22.83;12.85;;;18.30;99.90;;;;;;5073005;28;20140;-74
2022/11/01 05:50:42;;;;;;;21.05;14.57;;;18.30;99.90;;;;;;5055388;28;20127;-75
2022/11/01 05:53:10;;;;;;;22.15;15.15;;;18.30;99.90;;;;;;5078787;28;20046;-74
2022/11/01 05:55:38;;;;;;;23.95;14.75;;;18.30;99.90;;;;;;5067830;28;20255;-73
2022/11/01 05:58:06;;;;;;;25.52;15.18;;;18.40;99.90;;;;;;5061058;28;20036;-74
2022/11/01 06:00:34;;;;;;;24.83;15.25;;;18.40;99.90;;;;;;5071706;28;20081;-77
2022/11/01 06:03:02;;;;;;;25.23;15.75;;;18.40;99.90;;;;;;5040471;28;20071;-74
2022/11/01 06:05:30;;;;;;;25.02;15.80;;;18.40;99.90;;;;;;5067910;28;20048;-76
2022/11/01 06:08:00;;;;;;;33.03;18.08;;;18.50;99.90;;;;;;5051406;28;20153;-74
2022/11/01 06:10:28;;;;;;;28.50;18.17;;;18.50;99.90;;;;;;5068162;28;20044;-74
2022/11/01 06:12:56;;;;;;;26.10;16.50;;;18.50;99.90;;;;;;5051232;28;20048;-75
2022/11/01 06:15:23;;;;;;;29.02;18.63;;;18.50;99.90;;;;;;5067885;28;20149;-74
2022/11/01 06:17:58;;;;;;;28.48;18.13;;;18.60;99.90;;;;;;5067648;28;20110;-74
2022/11/01 06:20:28;;;;;;;35.75;21.55;;;18.60;99.90;;;;;;5054507;28;20079;-74
2022/11/01 06:22:57;;;;;;;35.50;19.30;;;18.70;99.90;;;;;;5051247;28;20075;-77
2022/11/01 06:25:27;;;;;;;25.15;17.70;;;18.70;99.90;;;;;;5051736;28;20106;-74
2022/11/01 06:27:55;;;;;;;29.38;17.65;;;18.70;99.90;;;;;;5020309;28;20095;-75
2022/11/01 06:30:22;;;;;;;23.38;17.67;;;18.80;99.90;;;;;;5047603;28;20045;-76
2022/11/01 06:32:50;;;;;;;28.85;17.48;;;18.80;99.90;;;;;;5030958;28;20087;-74
2022/11/01 06:35:18;;;;;;;25.17;15.80;;;18.90;99.90;;;;;;5047585;28;20048;-76
2022/11/01 06:37:46;;;;;;;31.15;16.38;;;18.90;99.90;;;;;;5047100;28;20064;-74
2022/11/01 06:40:13;;;;;;;25.77;16.58;;;18.90;99.90;;;;;;5047327;28;20458;-75
2022/11/01 06:42:41;;;;;;;29.00;16.13;;;19.00;99.90;;;;;;5030595;28;20521;-74
2022/11/01 06:45:10;;;;;;;27.50;15.82;;;19.00;99.90;;;;;;5047852;28;20521;-74
2022/11/01 06:47:37;;;;;;;26.65;17.30;;;19.10;99.90;;;;;;5047804;28;20040;-74
2022/11/01 06:50:09;;;;;;;31.00;17.20;;;19.00;99.90;;;;;;5047890;28;20045;-74
2022/11/01 06:52:37;;;;;;;33.60;16.65;;;19.00;99.90;;;;;;5048444;28;20049;-75
2022/11/01 06:55:05;;;;;;;26.25;16.40;;;19.10;99.90;;;;;;5014595;28;20055;-74
2022/11/01 06:57:33;;;;;;;26.88;16.40;;;19.10;99.90;;;;;;5047430;28;20041;-73
2022/11/01 07:00:00;;;;;;;27.02;15.73;;;19.20;99.90;;;;;;5030679;28;20084;-75
2022/11/01 07:02:28;;;;;;;29.80;17.20;;;19.10;99.90;;;;;;5064094;28;20144;-74
2022/11/01 07:04:56;;;;;;;34.22;18.05;;;19.20;99.90;;;;;;5031314;28;20064;-74
2022/11/01 07:07:24;;;;;;;25.20;15.10;;;19.20;99.90;;;;;;5047344;28;20053;-74
2022/11/01 07:09:51;;;;;;;28.63;15.88;;;19.20;99.90;;;;;;5030677;28;20053;-74
2022/11/01 07:12:18;;;;;;;24.88;16.17;;;19.30;99.90;;;;;;5046828;28;20059;-76
2022/11/01 07:14:46;;;;;;;27.05;16.77;;;19.30;99.90;;;;;;5048338;28;20049;-74
2022/11/01 07:17:14;;;;;;;31.80;15.82;;;19.40;99.90;;;;;;5047018;28;20141;-75
2022/11/01 07:19:41;;;;;;;24.30;15.65;;;19.40;99.90;;;;;;5043748;28;20053;-75
2022/11/01 07:22:09;;;;;;;25.77;15.90;;;19.40;99.90;;;;;;5048386;28;20045;-74
2022/11/01 07:24:36;;;;;;;23.17;14.38;;;19.40;99.90;;;;;;5063633;28;20041;-75
2022/11/01 07:27:04;;;;;;;32.05;18.20;;;19.50;99.90;;;;;;5030818;28;20044;-73
2022/11/01 07:29:31;;;;;;;23.85;16.90;;;19.50;99.90;;;;;;5047079;28;20067;-74
2022/11/01 07:31:59;;;;;;;24.45;15.57;;;19.60;99.90;;;;;;5047875;28;20137;-74
2022/11/01 07:34:27;;;;;;;28.50;16.17;;;19.70;99.90;;;;;;5062599;28;20083;-75
2022/11/01 07:36:54;;;;;;;24.88;16.67;;;19.70;99.90;;;;;;5068047;28;20136;-75
2022/11/01 07:39:22;;;;;;;25.65;17.48;;;19.70;99.90;;;;;;5067481;28;20576;-75
2022/11/01 07:41:51;;;;;;;23.13;15.35;;;19.70;99.90;;;;;;5049984;28;20109;-74
2022/11/01 07:44:19;;;;;;;26.05;15.75;;;19.70;99.90;;;;;;5066785;28;20556;-75
2022/11/01 07:46:46;;;;;;;22.45;15.27;;;19.80;99.90;;;;;;5050139;28;20045;-74
2022/11/01 07:49:14;;;;;;;23.58;15.07;;;19.80;99.90;;;;;;5049728;28;20048;-74
2022/11/01 07:51:41;;;;;;;27.27;16.02;;;19.80;99.90;;;;;;5066143;28;20056;-74
2022/11/01 07:54:10;;;;;;;24.70;14.85;;;19.80;99.90;;;;;;5065944;28;20062;-73
2022/11/01 07:56:37;;;;;;;22.27;14.25;;;19.80;99.90;;;;;;5066505;28;20582;-76
2022/11/01 07:59:06;;;;;;;22.25;15.43;;;19.80;99.90;;;;;;5067737;28;20502;-74
2022/11/01 08:01:34;;;;;;;24.27;13.25;;;19.80;99.90;;;;;;5067263;28;20041;-74
2022/11/01 08:04:01;;;;;;;29.52;16.48;;;19.80;99.90;;;;;;5032478;28;20041;-74
2022/11/01 08:06:29;;;;;;;31.40;16.15;;;19.90;99.90;;;;;;5049346;28;20518;-74
2022/11/01 08:08:57;;;;;;;26.17;14.60;;;19.90;99.90;;;;;;5067304;28;20055;-74
2022/11/01 08:11:24;;;;;;;29.75;15.50;;;20.00;99.90;;;;;;5067037;28;20033;-74
2022/11/01 08:13:52;;;;;;;23.73;15.25;;;20.00;99.90;;;;;;5032787;28;20084;-73
2022/11/01 08:16:19;;;;;;;27.85;14.82;;;20.10;99.90;;;;;;5028525;28;20486;-73
2022/11/01 08:18:47;;;;;;;23.15;15.45;;;20.10;99.90;;;;;;5045343;28;20060;-73
2022/11/01 08:21:17;;;;;;;23.52;13.02;;;20.20;99.90;;;;;;5029138;28;20392;-74
2022/11/01 08:23:45;;;;;;;27.30;13.38;;;20.20;99.90;;;;;;5045499;28;20044;-73
2022/11/01 08:26:14;;;;;;;21.15;14.63;;;20.30;99.90;;;;;;5028822;28;20139;-74
2022/11/01 08:28:41;;;;;;;23.80;13.27;;;20.30;99.90;;;;;;5029200;28;20084;-74
2022/11/01 08:31:10;;;;;;;26.88;14.43;;;20.40;99.90;;;;;;5045362;28;20045;-76
2022/11/01 08:33:37;;;;;;;22.17;14.02;;;20.50;99.90;;;;;;5045291;28;20422;-76
2022/11/01 08:36:05;;;;;;;24.13;14.40;;;20.70;99.90;;;;;;5028838;28;20048;-74
2022/11/01 08:38:32;;;;;;;21.00;13.63;;;20.70;99.90;;;;;;5029091;28;20388;-77
2022/11/01 08:41:00;;;;;;;23.98;13.70;;;20.90;99.90;;;;;;5030495;28;20045;-74
2022/11/01 08:43:28;;;;;;;21.67;13.15;;;21.10;99.90;;;;;;5047984;28;20572;-74
2022/11/01 08:45:58;;;;;;;18.48;11.68;;;21.20;99.90;;;;;;5066235;28;20697;-74
2022/11/01 08:48:26;;;;;;;22.52;13.13;;;21.30;99.90;;;;;;5065279;28;20052;-73
2022/11/01 08:50:53;;;;;;;18.08;13.38;;;21.40;99.90;;;;;;5032384;28;20219;-74
2022/11/01 08:53:21;;;;;;;27.30;11.75;;;21.60;99.90;;;;;;5048733;28;20052;-74
2022/11/01 08:55:54;;;;;;;21.92;11.88;;;21.70;99.90;;;;;;5064784;28;20135;-74
2022/11/01 08:58:22;;;;;;;20.50;11.82;;;22.00;99.90;;;;;;5048494;28;20048;-76
2022/11/01 09:00:50;;;;;;;22.15;11.27;;;22.40;99.90;;;;;;5032322;28;20064;-75
2022/11/01 09:03:18;;;;;;;16.02;11.20;;;22.70;99.90;;;;;;5048468;28;20075;-73
2022/11/01 09:05:45;;;;;;;14.55;10.15;;;22.80;99.90;;;;;;5027391;28;20114;-75
2022/11/01 09:08:13;;;;;;;19.63;10.35;;;23.00;99.90;;;;;;5028673;28;20056;-74
2022/11/01 09:10:40;;;;;;;15.48;10.57;;;23.00;99.90;;;;;;5045146;28;20064;-75
2022/11/01 09:13:08;;;;;;;19.08;10.80;;;23.30;99.90;;;;;;5044864;28;20080;-73
2022/11/01 09:15:36;;;;;;;16.15;10.35;;;23.60;99.90;;;;;;5029941;28;20059;-75
2022/11/01 09:18:05;;;;;;;16.02;10.07;;;23.90;99.90;;;;;;5032392;28;20041;-74
2022/11/01 09:20:33;;;;;;;14.55;9.70;;;24.10;99.90;;;;;;5032534;28;20068;-75
2022/11/01 09:23:01;;;;;;;18.23;10.20;;;24.30;99.90;;;;;;5048594;28;20041;-73
2022/11/01 09:25:29;;;;;;;18.17;10.90;;;24.50;99.90;;;;;;5015525;28;20417;-74
2022/11/01 09:27:57;;;;;;;14.25;9.30;;;24.70;99.90;;;;;;5049977;28;20445;-73
2022/11/01 09:30:25;;;;;;;19.27;9.02;;;25.00;99.90;;;;;;5032474;28;20109;-73
2022/11/01 09:32:53;;;;;;;15.23;9.23;;;25.20;99.90;;;;;;5050160;28;20064;-73
2022/11/01 09:35:21;;;;;;;13.95;8.98;;;25.50;99.90;;;;;;5048875;28;20052;-74
2022/11/01 09:37:55;;;;;;;14.73;9.52;;;25.80;99.90;;;;;;5032043;28;20788;-75
2022/11/01 09:40:24;;;;;;;16.95;10.00;;;25.90;99.90;;;;;;5048536;28;20133;-73
2022/11/01 09:42:53;;;;;;;14.48;8.57;;;26.10;99.90;;;;;;5031950;28;20136;-75
2022/11/01 09:45:25;;;;;;;11.35;8.05;;;26.20;99.90;;;;;;5048883;28;20048;-75
2022/11/01 09:47:56;;;;;;;13.57;8.95;;;26.30;99.90;;;;;;5031979;28;20049;-73
2022/11/01 09:50:38;;;;;;;19.67;8.75;;;26.40;99.90;;;;;;5065378;28;20651;-73
2022/11/01 09:53:18;;;;;;;13.88;7.53;;;26.40;99.90;;;;;;5051072;28;20041;-74
2022/11/01 09:56:21;;;;;;;12.77;8.95;;;26.50;99.90;;;;;;5067479;28;20498;-74
2022/11/01 09:59:10;;;;;;;13.02;7.72;;;26.50;99.90;;;;;;5066812;28;20048;-74
2022/11/01 10:02:07;;;;;;;11.40;7.45;;;26.60;99.90;;;;;;5048660;28;20469;-74
2022/11/01 10:05:06;;;;;;;11.48;7.35;;;26.60;99.90;;;;;;5031030;28;20652;-73
2022/11/01 10:08:06;;;;;;;15.18;7.10;;;26.60;99.90;;;;;;5032123;28;20060;-74
2022/11/01 10:10:52;;;;;;;13.60;7.97;;;26.60;99.90;;;;;;5032012;28;20459;-74
2022/11/01 10:13:39;;;;;;;11.07;7.15;;;26.60;99.90;;;;;;5031456;28;20076;-73
2022/11/01 10:16:14;;;;;;;16.48;7.88;;;26.60;99.90;;;;;;5031603;28;20503;-73
2022/11/01 10:19:03;;;;;;;13.77;7.00;;;26.70;99.90;;;;;;5031507;28;20045;-73
2022/11/01 10:21:46;;;;;;;14.02;6.60;;;26.70;99.90;;;;;;5031311;28;20040;-74
2022/11/01 10:24:30;;;;;;;17.42;6.35;;;26.80;99.90;;;;;;5048754;28;20055;-75
2022/11/01 10:27:11;;;;;;;8.80;5.47;;;26.80;99.90;;;;;;5030595;28;20494;-73
2022/11/01 10:29:45;;;;;;;11.02;6.93;;;26.80;99.90;;;;;;5031730;28;20152;-74
2022/11/01 10:32:27;;;;;;;12.10;6.32;;;26.80;99.90;;;;;;5031806;28;20068;-73
2022/11/01 10:34:59;;;;;;;10.50;7.18;;;26.80;99.90;;;;;;5048075;28;20402;-73
2022/11/01 10:37:33;;;;;;;10.43;5.68;;;26.70;99.90;;;;;;5015667;28;20495;-73
2022/11/01 10:40:14;;;;;;;13.15;6.32;;;26.80;99.90;;;;;;5047543;28;20514;-74
2022/11/01 10:42:41;;;;;;;11.20;6.38;;;26.90;99.90;;;;;;5031503;28;20072;-73
2022/11/01 10:45:14;;;;;;;11.80;7.32;;;27.00;99.90;;;;;;5031215;28;20045;-73
2022/11/01 10:47:45;;;;;;;12.38;6.45;;;27.00;99.90;;;;;;5036490;28;20049;-74
2022/11/01 10:50:16;;;;;;;12.40;5.57;;;27.10;99.90;;;;;;5031295;28;20048;-73
2022/11/01 10:52:58;;;;;;;15.82;7.30;;;27.00;99.90;;;;;;5047567;28;20084;-74
2022/11/01 10:55:42;;;;;;;9.20;5.68;;;27.00;99.90;;;;;;5047227;28;20040;-73
2022/11/01 10:58:12;;;;;;;10.25;6.07;;;27.00;99.90;;;;;;5030751;28;20084;-75
2022/11/01 11:00:42;;;;;;;9.63;6.47;;;27.10;99.90;;;;;;5061047;28;20075;-73
2022/11/01 11:03:23;;;;;;;10.55;5.50;;;27.20;99.90;;;;;;5050186;28;20048;-74
2022/11/01 11:05:53;;;;;;;13.43;6.43;;;27.30;99.90;;;;;;5050499;28;20146;-74
2022/11/01 11:08:23;;;;;;;12.85;6.75;;;27.40;99.90;;;;;;5067184;28;20048;-73
2022/11/01 11:10:52;;;;;;;9.73;6.20;;;27.40;99.90;;;;;;5068425;28;20718;-76
2022/11/01 11:13:24;;;;;;;9.32;5.75;;;27.50;99.90;;;;;;5066812;28;20120;-73
2022/11/01 11:16:00;;;;;;;13.85;7.05;;;27.50;99.90;;;;;;5066607;28;20048;-75
2022/11/01 11:18:37;;;;;;;17.02;7.82;;;27.40;99.90;;;;;;5066561;28;20131;-73
2022/11/01 11:21:08;;;;;;;11.70;6.10;;;27.30;99.90;;;;;;5050580;28;20056;-74
2022/11/01 11:23:44;;;;;;;11.60;6.22;;;27.40;99.90;;;;;;5050138;28;20195;-73
2022/11/01 11:26:15;;;;;;;10.20;6.32;;;27.40;99.90;;;;;;5067103;28;20052;-74
2022/11/01 11:28:50;;;;;;;10.57;5.72;;;27.40;99.90;;;;;;5068045;28;20066;-75
2022/11/01 11:31:30;;;;;;;7.97;5.82;;;27.30;99.90;;;;;;5050225;28;20113;-75
2022/11/01 11:34:22;;;;;;;12.35;6.28;;;27.30;99.90;;;;;;5049734;28;20059;-73
2022/11/01 11:36:53;;;;;;;7.93;5.00;;;27.30;99.90;;;;;;5049987;28;20067;-77
2022/11/01 11:39:35;;;;;;;9.43;5.78;;;27.30;99.90;;;;;;5050396;28;20071;-73
2022/11/01 11:42:18;;;;;;;10.18;6.22;;;27.20;99.90;;;;;;5050178;28;20141;-73
2022/11/01 11:44:49;;;;;;;9.73;5.93;;;27.30;99.90;;;;;;5049967;28;20098;-73
2022/11/01 11:47:24;;;;;;;10.60;6.40;;;27.30;99.90;;;;;;5067755;28;20129;-75
2022/11/01 11:49:52;;;;;;;13.07;5.53;;;27.20;99.90;;;;;;5066250;28;20110;-74
2022/11/01 11:52:25;;;;;;;10.38;4.60;;;27.20;99.90;;;;;;5033806;28;20056;-74
2022/11/01 11:54:55;;;;;;;8.77;5.57;;;27.20;99.90;;;;;;5050138;28;20052;-74
2022/11/01 11:57:25;;;;;;;10.65;5.82;;;27.20;99.90;;;;;;5066277;28;20076;-77
2022/11/01 11:59:59;;;;;;;9.52;5.68;;;27.20;99.90;;;;;;5065857;28;20475;-75
2022/11/01 12:02:36;;;;;;;9.32;5.72;;;27.20;99.90;;;;;;5032438;28;20486;-75
2022/11/01 12:05:10;;;;;;;12.20;5.38;;;27.20;99.90;;;;;;5033923;28;20052;-74
2022/11/01 12:07:49;;;;;;;12.93;5.72;;;27.20;99.90;;;;;;5068765;28;20090;-74
2022/11/01 12:10:46;;;;;;;10.00;5.70;;;27.20;99.90;;;;;;5069215;28;20110;-73
2022/11/01 12:13:19;;;;;;;;;;;27.10;99.90;;;;;;5066938;28;20060;-73
2022/11/01 12:15:47;;;;;;;13.32;6.10;;;27.10;99.90;;;;;;5069115;28;19931;-74
2022/11/01 12:18:18;;;;;;;9.77;5.53;;;27.10;99.90;;;;;;5067840;28;20491;-73
2022/11/01 12:20:50;;;;;;;8.52;5.05;;;27.10;99.90;;;;;;5068316;28;20056;-73
2022/11/01 12:23:34;;;;;;;7.95;4.82;;;27.00;99.90;;;;;;5067948;28;20052;-74
2022/11/01 12:26:06;;;;;;;7.15;4.72;;;27.00;99.90;;;;;;5047840;28;20091;-74
2022/11/01 12:28:54;;;;;;;11.27;5.32;;;26.80;99.90;;;;;;5031554;28;20447;-73
2022/11/01 12:31:21;;;;;;;7.63;4.97;;;26.80;99.90;;;;;;5047544;28;20155;-73
2022/11/01 12:34:12;;;;;;;8.75;4.43;;;26.80;99.90;;;;;;5015140;28;20149;-74
2022/11/01 12:36:57;;;;;;;9.50;5.43;;;26.80;99.90;;;;;;5031086;28;20617;-73
2022/11/01 12:39:34;;;;;;;8.60;4.40;;;26.80;99.90;;;;;;5031686;28;20132;-75
2022/11/01 12:42:03;;;;;;;9.48;5.95;;;26.80;99.90;;;;;;5047797;28;20045;-74
2022/11/01 12:44:45;;;;;;;20.13;6.93;;;26.80;99.90;;;;;;5014866;28;20722;-73
2022/11/01 12:47:32;;;;;;;7.75;5.28;;;26.60;99.90;;;;;;5031069;28;20175;-73
2022/11/01 12:50:02;;;;;;;14.57;6.60;;;26.60;99.90;;;;;;5035150;28;20048;-74
2022/11/01 12:52:39;;;;;;;9.15;5.57;;;26.50;99.90;;;;;;5031368;28;20118;-73
2022/11/01 12:55:19;;;;;;;10.68;4.40;;;26.60;99.90;;;;;;5048555;28;20321;-75
2022/11/01 12:57:47;;;;;;;12.32;5.32;;;26.50;99.90;;;;;;5046750;28;20051;-74
2022/11/01 13:00:17;;;;;;;11.95;5.10;;;26.40;99.90;;;;;;5063995;28;20107;-76
2022/11/01 13:03:23;;;;;;;8.52;3.97;;;26.40;99.90;;;;;;5046870;28;20495;-73
2022/11/01 13:06:12;;;;;;;8.93;4.60;;;26.40;99.90;;;;;;5035847;28;20103;-73
2022/11/01 13:09:10;;;;;;;7.45;5.07;;;26.40;99.90;;;;;;5030747;28;20068;-73